sensor_id;sensor_type;location;lat;lon;timestamp;P1;durP1;ratioP1;P2;durP2;ratioP2
20792;SDS011;10556;-33.662;151.094;2022-12-28T00:00:30;3.20;;;1.23;;
20792;SDS011;10556;-33.662;151.094;2022-12-28T00:05:33;1.65;;;1.52;;
20792;SDS011;10556;-33.662;151.094;2022-12-28T00:10:37;2.97;;;1.20;;
20792;SDS011;10556;-33.662;151.094;2022-12-28T00:15:40;1.40;;;1.10;;
20792;SDS011;10556;-33.662;151.094;2022-12-28T00:20:42;1.45;;;1.23;;
20792;SDS011;10556;-33.662;151.094;2022-12-28T00:25:46;1.95;;;0.80;;
20792;SDS011;10556;-33.662;151.094;2022-12-28T00:30:49;1.65;;;1.00;;
20792;SDS011;10556;-33.662;151.094;2022-12-28T00:35:52;2.78;;;1.02;;
20792;SDS011;10556;-33.662;151.094;2022-12-28T00:40:56;2.75;;;0.90;;
20792;SDS011;10556;-33.662;151.094;2022-12-28T00:45:59;1.27;;;0.80;;
20792;SDS011;10556;-33.662;151.094;2022-12-28T00:51:02;1.92;;;0.70;;
20792;SDS011;10556;-33.662;151.094;2022-12-28T00:56:08;6.13;;;1.15;;
20792;SDS011;10556;-33.662;151.094;2022-12-28T01:01:13;1.13;;;0.85;;
20792;SDS011;10556;-33.662;151.094;2022-12-28T01:06:16;1.27;;;0.95;;
20792;SDS011;10556;-33.662;151.094;2022-12-28T01:11:22;0.82;;;0.50;;
20792;SDS011;10556;-33.662;151.094;2022-12-28T01:16:26;0.80;;;0.70;;
20792;SDS011;10556;-33.662;151.094;2022-12-28T01:21:30;0.80;;;0.68;;
20792;SDS011;10556;-33.662;151.094;2022-12-28T01:26:35;1.40;;;0.57;;
20792;SDS011;10556;-33.662;151.094;2022-12-28T01:31:37;1.67;;;0.63;;
20792;SDS011;10556;-33.662;151.094;2022-12-28T01:36:40;1.98;;;0.80;;
20792;SDS011;10556;-33.662;151.094;2022-12-28T01:41:44;0.95;;;0.60;;
20792;SDS011;10556;-33.662;151.094;2022-12-28T01:46:47;1.17;;;0.82;;
20792;SDS011;10556;-33.662;151.094;2022-12-28T01:51:52;1.25;;;0.63;;
20792;SDS011;10556;-33.662;151.094;2022-12-28T01:57:00;1.80;;;0.80;;
20792;SDS011;10556;-33.662;151.094;2022-12-28T02:02:03;3.92;;;0.80;;
20792;SDS011;10556;-33.662;151.094;2022-12-28T02:07:06;1.77;;;0.80;;
20792;SDS011;10556;-33.662;151.094;2022-12-28T02:12:12;2.50;;;0.80;;
20792;SDS011;10556;-33.662;151.094;2022-12-28T02:17:17;4.05;;;0.88;;
20792;SDS011;10556;-33.662;151.094;2022-12-28T02:28:01;2.05;;;0.68;;
20792;SDS011;10556;-33.662;151.094;2022-12-28T02:33:17;3.47;;;0.80;;
20792;SDS011;10556;-33.662;151.094;2022-12-28T02:38:27;4.18;;;1.10;;
20792;SDS011;10556;-33.662;151.094;2022-12-28T02:43:34;1.42;;;0.65;;
20792;SDS011;10556;-33.662;151.094;2022-12-28T02:48:39;3.10;;;0.80;;
20792;SDS011;10556;-33.662;151.094;2022-12-28T02:53:46;2.88;;;0.90;;
20792;SDS011;10556;-33.662;151.094;2022-12-28T02:59:22;3.80;;;0.80;;
20792;SDS011;10556;-33.662;151.094;2022-12-28T03:05:00;3.67;;;0.80;;
20792;SDS011;10556;-33.662;151.094;2022-12-28T03:10:15;1.40;;;0.60;;
20792;SDS011;10556;-33.662;151.094;2022-12-28T03:15:21;3.78;;;0.68;;
20792;SDS011;10556;-33.662;151.094;2022-12-28T03:20:29;1.25;;;0.40;;
20792;SDS011;10556;-33.662;151.094;2022-12-28T03:25:32;3.25;;;0.90;;
20792;SDS011;10556;-33.662;151.094;2022-12-28T03:30:38;1.95;;;0.68;;
20792;SDS011;10556;-33.662;151.094;2022-12-28T03:35:48;2.05;;;0.75;;
20792;SDS011;10556;-33.662;151.094;2022-12-28T03:40:58;3.33;;;0.95;;
20792;SDS011;10556;-33.662;151.094;2022-12-28T03:46:08;1.58;;;0.50;;
20792;SDS011;10556;-33.662;151.094;2022-12-28T03:51:18;3.15;;;0.63;;
20792;SDS011;10556;-33.662;151.094;2022-12-28T03:56:23;3.45;;;0.60;;
20792;SDS011;10556;-33.662;151.094;2022-12-28T04:01:26;1.48;;;0.60;;
20792;SDS011;10556;-33.662;151.094;2022-12-28T04:06:31;2.47;;;0.55;;
20792;SDS011;10556;-33.662;151.094;2022-12-28T04:11:33;2.30;;;0.70;;
20792;SDS011;10556;-33.662;151.094;2022-12-28T04:16:35;6.07;;;1.23;;
20792;SDS011;10556;-33.662;151.094;2022-12-28T04:21:40;7.57;;;1.05;;
20792;SDS011;10556;-33.662;151.094;2022-12-28T04:26:42;3.92;;;0.80;;
20792;SDS011;10556;-33.662;151.094;2022-12-28T04:31:45;2.20;;;0.40;;
20792;SDS011;10556;-33.662;151.094;2022-12-28T04:36:49;2.95;;;0.50;;
20792;SDS011;10556;-33.662;151.094;2022-12-28T04:41:51;2.63;;;0.65;;
20792;SDS011;10556;-33.662;151.094;2022-12-28T04:46:54;3.88;;;0.70;;
20792;SDS011;10556;-33.662;151.094;2022-12-28T04:51:58;4.53;;;0.80;;
20792;SDS011;10556;-33.662;151.094;2022-12-28T04:57:00;3.25;;;0.70;;
20792;SDS011;10556;-33.662;151.094;2022-12-28T05:02:03;2.58;;;0.80;;
20792;SDS011;10556;-33.662;151.094;2022-12-28T05:07:07;3.22;;;0.80;;
20792;SDS011;10556;-33.662;151.094;2022-12-28T05:12:10;3.95;;;0.70;;
20792;SDS011;10556;-33.662;151.094;2022-12-28T05:17:12;2.53;;;0.77;;
20792;SDS011;10556;-33.662;151.094;2022-12-28T05:22:17;5.47;;;1.10;;
20792;SDS011;10556;-33.662;151.094;2022-12-28T05:27:19;3.30;;;0.70;;
20792;SDS011;10556;-33.662;151.094;2022-12-28T05:32:21;7.32;;;1.05;;
20792;SDS011;10556;-33.662;151.094;2022-12-28T05:37:26;2.78;;;0.65;;
20792;SDS011;10556;-33.662;151.094;2022-12-28T05:42:28;2.22;;;0.80;;
20792;SDS011;10556;-33.662;151.094;2022-12-28T05:47:31;2.67;;;0.82;;
20792;SDS011;10556;-33.662;151.094;2022-12-28T05:52:35;4.88;;;0.93;;
20792;SDS011;10556;-33.662;151.094;2022-12-28T05:57:37;1.70;;;0.63;;
20792;SDS011;10556;-33.662;151.094;2022-12-28T06:02:40;2.85;;;0.70;;
20792;SDS011;10556;-33.662;151.094;2022-12-28T06:07:44;3.75;;;0.80;;
20792;SDS011;10556;-33.662;151.094;2022-12-28T06:12:46;5.68;;;1.00;;
20792;SDS011;10556;-33.662;151.094;2022-12-28T06:17:51;5.47;;;1.10;;
20792;SDS011;10556;-33.662;151.094;2022-12-28T06:22:56;10.80;;;1.17;;
20792;SDS011;10556;-33.662;151.094;2022-12-28T06:27:58;6.00;;;1.17;;
20792;SDS011;10556;-33.662;151.094;2022-12-28T06:33:01;5.30;;;0.75;;
20792;SDS011;10556;-33.662;151.094;2022-12-28T06:38:05;2.88;;;0.77;;
20792;SDS011;10556;-33.662;151.094;2022-12-28T06:43:08;4.72;;;0.70;;
20792;SDS011;10556;-33.662;151.094;2022-12-28T06:48:10;3.47;;;0.90;;
20792;SDS011;10556;-33.662;151.094;2022-12-28T06:53:14;8.93;;;1.30;;
20792;SDS011;10556;-33.662;151.094;2022-12-28T06:58:17;5.45;;;1.52;;
20792;SDS011;10556;-33.662;151.094;2022-12-28T07:03:19;4.75;;;1.02;;
20792;SDS011;10556;-33.662;151.094;2022-12-28T07:08:23;7.22;;;0.90;;
20792;SDS011;10556;-33.662;151.094;2022-12-28T07:13:26;5.93;;;1.13;;
20792;SDS011;10556;-33.662;151.094;2022-12-28T07:18:28;1.48;;;0.70;;
20792;SDS011;10556;-33.662;151.094;2022-12-28T07:23:33;5.78;;;1.17;;
20792;SDS011;10556;-33.662;151.094;2022-12-28T07:28:36;5.65;;;1.30;;
20792;SDS011;10556;-33.662;151.094;2022-12-28T07:33:39;8.55;;;1.80;;
20792;SDS011;10556;-33.662;151.094;2022-12-28T07:38:43;9.10;;;2.25;;
20792;SDS011;10556;-33.662;151.094;2022-12-28T07:43:46;5.72;;;0.82;;
20792;SDS011;10556;-33.662;151.094;2022-12-28T07:48:49;4.28;;;1.02;;
20792;SDS011;10556;-33.662;151.094;2022-12-28T07:53:54;5.82;;;1.30;;
20792;SDS011;10556;-33.662;151.094;2022-12-28T07:58:58;5.18;;;1.20;;
20792;SDS011;10556;-33.662;151.094;2022-12-28T08:04:02;4.38;;;1.10;;
20792;SDS011;10556;-33.662;151.094;2022-12-28T08:09:07;11.90;;;1.80;;
20792;SDS011;10556;-33.662;151.094;2022-12-28T08:14:11;8.10;;;1.47;;
20792;SDS011;10556;-33.662;151.094;2022-12-28T08:19:14;5.23;;;1.40;;
20792;SDS011;10556;-33.662;151.094;2022-12-28T08:24:18;6.20;;;1.37;;
20792;SDS011;10556;-33.662;151.094;2022-12-28T08:29:21;8.60;;;1.40;;
20792;SDS011;10556;-33.662;151.094;2022-12-28T08:34:24;9.57;;;1.30;;
20792;SDS011;10556;-33.662;151.094;2022-12-28T08:39:28;9.30;;;1.20;;
20792;SDS011;10556;-33.662;151.094;2022-12-28T08:44:30;8.67;;;1.97;;
20792;SDS011;10556;-33.662;151.094;2022-12-28T08:49:33;10.07;;;1.93;;
20792;SDS011;10556;-33.662;151.094;2022-12-28T08:54:37;10.73;;;1.80;;
20792;SDS011;10556;-33.662;151.094;2022-12-28T08:59:40;9.93;;;1.60;;
20792;SDS011;10556;-33.662;151.094;2022-12-28T09:04:42;11.00;;;1.87;;
20792;SDS011;10556;-33.662;151.094;2022-12-28T09:09:47;10.13;;;1.50;;
20792;SDS011;10556;-33.662;151.094;2022-12-28T09:14:49;5.67;;;1.60;;
20792;SDS011;10556;-33.662;151.094;2022-12-28T09:19:51;9.30;;;1.57;;
20792;SDS011;10556;-33.662;151.094;2022-12-28T09:24:56;6.60;;;1.20;;
20792;SDS011;10556;-33.662;151.094;2022-12-28T09:29:58;11.93;;;1.83;;
20792;SDS011;10556;-33.662;151.094;2022-12-28T09:35:02;10.43;;;1.63;;
20792;SDS011;10556;-33.662;151.094;2022-12-28T09:40:07;8.93;;;1.43;;
20792;SDS011;10556;-33.662;151.094;2022-12-28T09:45:10;10.10;;;1.87;;
20792;SDS011;10556;-33.662;151.094;2022-12-28T09:50:26;12.23;;;1.60;;
20792;SDS011;10556;-33.662;151.094;2022-12-28T09:55:33;14.03;;;1.57;;
20792;SDS011;10556;-33.662;151.094;2022-12-28T10:00:37;13.77;;;2.07;;
20792;SDS011;10556;-33.662;151.094;2022-12-28T10:05:42;7.33;;;1.53;;
20792;SDS011;10556;-33.662;151.094;2022-12-28T10:10:47;11.20;;;2.00;;
20792;SDS011;10556;-33.662;151.094;2022-12-28T10:15:51;10.37;;;1.80;;
20792;SDS011;10556;-33.662;151.094;2022-12-28T10:20:53;7.70;;;1.47;;
20792;SDS011;10556;-33.662;151.094;2022-12-28T10:25:58;9.23;;;1.57;;
20792;SDS011;10556;-33.662;151.094;2022-12-28T10:31:02;6.30;;;1.70;;
20792;SDS011;10556;-33.662;151.094;2022-12-28T10:36:09;11.30;;;2.60;;
20792;SDS011;10556;-33.662;151.094;2022-12-28T10:41:16;13.17;;;1.93;;
20792;SDS011;10556;-33.662;151.094;2022-12-28T10:46:20;9.50;;;1.90;;
20792;SDS011;10556;-33.662;151.094;2022-12-28T10:51:24;10.40;;;1.97;;
20792;SDS011;10556;-33.662;151.094;2022-12-28T10:56:29;10.77;;;1.87;;
20792;SDS011;10556;-33.662;151.094;2022-12-28T11:01:33;13.73;;;2.10;;
20792;SDS011;10556;-33.662;151.094;2022-12-28T11:06:37;12.53;;;1.60;;
20792;SDS011;10556;-33.662;151.094;2022-12-28T11:11:54;9.47;;;1.70;;
20792;SDS011;10556;-33.662;151.094;2022-12-28T11:17:16;11.27;;;1.90;;
20792;SDS011;10556;-33.662;151.094;2022-12-28T11:22:21;9.70;;;1.57;;
20792;SDS011;10556;-33.662;151.094;2022-12-28T11:27:27;7.30;;;2.10;;
20792;SDS011;10556;-33.662;151.094;2022-12-28T11:32:30;12.00;;;1.67;;
20792;SDS011;10556;-33.662;151.094;2022-12-28T11:37:38;5.80;;;1.37;;
20792;SDS011;10556;-33.662;151.094;2022-12-28T11:42:54;10.27;;;1.70;;
20792;SDS011;10556;-33.662;151.094;2022-12-28T11:48:04;8.13;;;1.97;;
20792;SDS011;10556;-33.662;151.094;2022-12-28T11:53:54;10.20;;;2.33;;
20792;SDS011;10556;-33.662;151.094;2022-12-28T11:59:04;8.17;;;2.07;;
20792;SDS011;10556;-33.662;151.094;2022-12-28T12:04:28;11.80;;;1.80;;
20792;SDS011;10556;-33.662;151.094;2022-12-28T12:09:39;7.67;;;1.67;;
20792;SDS011;10556;-33.662;151.094;2022-12-28T12:14:45;12.73;;;1.70;;
20792;SDS011;10556;-33.662;151.094;2022-12-28T12:19:54;10.93;;;1.63;;
20792;SDS011;10556;-33.662;151.094;2022-12-28T12:25:00;10.30;;;1.50;;
20792;SDS011;10556;-33.662;151.094;2022-12-28T12:30:13;10.97;;;1.87;;
20792;SDS011;10556;-33.662;151.094;2022-12-28T12:35:18;8.37;;;1.50;;
20792;SDS011;10556;-33.662;151.094;2022-12-28T12:45:50;5.23;;;1.20;;
20792;SDS011;10556;-33.662;151.094;2022-12-28T12:51:01;5.37;;;1.13;;
20792;SDS011;10556;-33.662;151.094;2022-12-28T12:56:17;5.93;;;1.23;;
20792;SDS011;10556;-33.662;151.094;2022-12-28T13:01:41;7.87;;;1.63;;
20792;SDS011;10556;-33.662;151.094;2022-12-28T13:06:53;7.67;;;1.37;;
20792;SDS011;10556;-33.662;151.094;2022-12-28T13:11:58;10.33;;;1.73;;
20792;SDS011;10556;-33.662;151.094;2022-12-28T13:17:04;10.17;;;1.63;;
20792;SDS011;10556;-33.662;151.094;2022-12-28T13:22:26;4.93;;;1.60;;
20792;SDS011;10556;-33.662;151.094;2022-12-28T13:27:30;1.90;;;0.63;;
20792;SDS011;10556;-33.662;151.094;2022-12-28T13:32:36;2.87;;;1.07;;
20792;SDS011;10556;-33.662;151.094;2022-12-28T13:38:01;7.00;;;1.30;;
20792;SDS011;10556;-33.662;151.094;2022-12-28T13:48:51;4.43;;;1.10;;
20792;SDS011;10556;-33.662;151.094;2022-12-28T13:53:56;6.07;;;1.13;;
20792;SDS011;10556;-33.662;151.094;2022-12-28T13:59:02;2.07;;;1.03;;
20792;SDS011;10556;-33.662;151.094;2022-12-28T14:04:09;3.33;;;1.10;;
20792;SDS011;10556;-33.662;151.094;2022-12-28T14:09:15;5.20;;;0.93;;
20792;SDS011;10556;-33.662;151.094;2022-12-28T14:14:19;7.00;;;1.77;;
20792;SDS011;10556;-33.662;151.094;2022-12-28T14:19:23;5.13;;;1.23;;
20792;SDS011;10556;-33.662;151.094;2022-12-28T14:24:26;5.37;;;1.30;;
20792;SDS011;10556;-33.662;151.094;2022-12-28T14:29:29;8.70;;;1.83;;
20792;SDS011;10556;-33.662;151.094;2022-12-28T14:34:35;9.50;;;1.70;;
20792;SDS011;10556;-33.662;151.094;2022-12-28T14:39:39;7.30;;;1.20;;
20792;SDS011;10556;-33.662;151.094;2022-12-28T14:44:44;8.00;;;1.43;;
20792;SDS011;10556;-33.662;151.094;2022-12-28T14:49:56;5.83;;;1.23;;
20792;SDS011;10556;-33.662;151.094;2022-12-28T14:55:02;7.73;;;1.90;;
20792;SDS011;10556;-33.662;151.094;2022-12-28T15:00:23;2.60;;;0.90;;
20792;SDS011;10556;-33.662;151.094;2022-12-28T15:05:40;7.70;;;1.37;;
20792;SDS011;10556;-33.662;151.094;2022-12-28T15:10:46;3.57;;;1.07;;
20792;SDS011;10556;-33.662;151.094;2022-12-28T15:15:53;4.03;;;1.30;;
20792;SDS011;10556;-33.662;151.094;2022-12-28T15:21:00;2.77;;;0.97;;
20792;SDS011;10556;-33.662;151.094;2022-12-28T15:26:05;8.73;;;2.33;;
20792;SDS011;10556;-33.662;151.094;2022-12-28T15:31:09;7.80;;;2.07;;
20792;SDS011;10556;-33.662;151.094;2022-12-28T15:36:15;8.07;;;1.67;;
20792;SDS011;10556;-33.662;151.094;2022-12-28T15:41:19;2.83;;;1.10;;
20792;SDS011;10556;-33.662;151.094;2022-12-28T15:46:21;5.17;;;1.10;;
20792;SDS011;10556;-33.662;151.094;2022-12-28T15:51:25;2.37;;;1.10;;
20792;SDS011;10556;-33.662;151.094;2022-12-28T15:56:28;4.13;;;1.43;;
20792;SDS011;10556;-33.662;151.094;2022-12-28T16:01:32;4.20;;;0.97;;
20792;SDS011;10556;-33.662;151.094;2022-12-28T16:06:37;4.60;;;1.20;;
20792;SDS011;10556;-33.662;151.094;2022-12-28T16:11:39;3.07;;;0.80;;
20792;SDS011;10556;-33.662;151.094;2022-12-28T16:16:42;6.93;;;1.20;;
20792;SDS011;10556;-33.662;151.094;2022-12-28T16:21:47;4.03;;;1.13;;
20792;SDS011;10556;-33.662;151.094;2022-12-28T16:26:49;2.40;;;1.00;;
20792;SDS011;10556;-33.662;151.094;2022-12-28T16:31:52;5.33;;;1.07;;
20792;SDS011;10556;-33.662;151.094;2022-12-28T16:36:56;4.53;;;1.50;;
20792;SDS011;10556;-33.662;151.094;2022-12-28T16:41:59;6.90;;;1.37;;
20792;SDS011;10556;-33.662;151.094;2022-12-28T16:47:01;4.47;;;1.20;;
20792;SDS011;10556;-33.662;151.094;2022-12-28T16:52:06;3.70;;;1.23;;
20792;SDS011;10556;-33.662;151.094;2022-12-28T16:57:10;4.77;;;1.33;;
20792;SDS011;10556;-33.662;151.094;2022-12-28T17:02:13;1.27;;;0.60;;
20792;SDS011;10556;-33.662;151.094;2022-12-28T17:07:17;6.03;;;1.17;;
20792;SDS011;10556;-33.662;151.094;2022-12-28T17:12:23;2.63;;;1.10;;
20792;SDS011;10556;-33.662;151.094;2022-12-28T17:17:25;3.90;;;1.00;;
20792;SDS011;10556;-33.662;151.094;2022-12-28T17:22:30;4.47;;;1.47;;
20792;SDS011;10556;-33.662;151.094;2022-12-28T17:27:32;4.70;;;1.00;;
20792;SDS011;10556;-33.662;151.094;2022-12-28T17:32:35;4.70;;;1.00;;
20792;SDS011;10556;-33.662;151.094;2022-12-28T17:37:39;5.03;;;1.30;;
20792;SDS011;10556;-33.662;151.094;2022-12-28T17:42:41;5.30;;;1.60;;
20792;SDS011;10556;-33.662;151.094;2022-12-28T17:47:44;6.87;;;1.87;;
20792;SDS011;10556;-33.662;151.094;2022-12-28T17:52:48;12.13;;;3.20;;
20792;SDS011;10556;-33.662;151.094;2022-12-28T17:57:51;23.63;;;3.90;;
20792;SDS011;10556;-33.662;151.094;2022-12-28T18:02:53;12.17;;;2.90;;
20792;SDS011;10556;-33.662;151.094;2022-12-28T18:07:57;19.53;;;2.90;;
20792;SDS011;10556;-33.662;151.094;2022-12-28T18:13:00;15.50;;;3.77;;
20792;SDS011;10556;-33.662;151.094;2022-12-28T18:18:02;19.00;;;4.37;;
20792;SDS011;10556;-33.662;151.094;2022-12-28T18:23:07;17.43;;;3.77;;
20792;SDS011;10556;-33.662;151.094;2022-12-28T18:28:10;15.93;;;4.07;;
20792;SDS011;10556;-33.662;151.094;2022-12-28T18:33:12;8.83;;;2.43;;
20792;SDS011;10556;-33.662;151.094;2022-12-28T18:38:16;10.57;;;3.30;;
20792;SDS011;10556;-33.662;151.094;2022-12-28T18:43:19;23.87;;;4.30;;
20792;SDS011;10556;-33.662;151.094;2022-12-28T18:48:21;16.53;;;3.67;;
20792;SDS011;10556;-33.662;151.094;2022-12-28T18:53:27;16.30;;;4.13;;
20792;SDS011;10556;-33.662;151.094;2022-12-28T18:58:30;12.70;;;3.50;;
20792;SDS011;10556;-33.662;151.094;2022-12-28T19:03:34;15.50;;;3.57;;
20792;SDS011;10556;-33.662;151.094;2022-12-28T19:08:39;13.97;;;3.60;;
20792;SDS011;10556;-33.662;151.094;2022-12-28T19:13:41;19.30;;;3.97;;
20792;SDS011;10556;-33.662;151.094;2022-12-28T19:18:44;10.30;;;3.00;;
20792;SDS011;10556;-33.662;151.094;2022-12-28T19:23:51;10.17;;;3.00;;
20792;SDS011;10556;-33.662;151.094;2022-12-28T19:28:54;7.87;;;2.47;;
20792;SDS011;10556;-33.662;151.094;2022-12-28T19:33:56;8.57;;;2.50;;
20792;SDS011;10556;-33.662;151.094;2022-12-28T19:39:01;11.83;;;3.50;;
20792;SDS011;10556;-33.662;151.094;2022-12-28T19:44:03;9.70;;;3.00;;
20792;SDS011;10556;-33.662;151.094;2022-12-28T19:49:06;9.53;;;3.10;;
20792;SDS011;10556;-33.662;151.094;2022-12-28T19:54:11;11.03;;;2.73;;
20792;SDS011;10556;-33.662;151.094;2022-12-28T19:59:14;10.83;;;2.47;;
20792;SDS011;10556;-33.662;151.094;2022-12-28T20:04:16;16.57;;;3.40;;
20792;SDS011;10556;-33.662;151.094;2022-12-28T20:09:21;9.17;;;2.47;;
20792;SDS011;10556;-33.662;151.094;2022-12-28T20:14:23;7.90;;;2.13;;
20792;SDS011;10556;-33.662;151.094;2022-12-28T20:19:25;10.17;;;2.23;;
20792;SDS011;10556;-33.662;151.094;2022-12-28T20:24:30;5.63;;;1.80;;
20792;SDS011;10556;-33.662;151.094;2022-12-28T20:29:32;7.47;;;1.97;;
20792;SDS011;10556;-33.662;151.094;2022-12-28T20:34:35;9.00;;;2.53;;
20792;SDS011;10556;-33.662;151.094;2022-12-28T20:39:39;5.90;;;1.90;;
20792;SDS011;10556;-33.662;151.094;2022-12-28T20:44:42;5.63;;;2.07;;
20792;SDS011;10556;-33.662;151.094;2022-12-28T20:49:44;12.70;;;2.67;;
20792;SDS011;10556;-33.662;151.094;2022-12-28T20:54:48;5.23;;;2.13;;
20792;SDS011;10556;-33.662;151.094;2022-12-28T20:59:51;3.73;;;1.50;;
20792;SDS011;10556;-33.662;151.094;2022-12-28T21:04:53;6.00;;;1.97;;
20792;SDS011;10556;-33.662;151.094;2022-12-28T21:09:57;6.13;;;1.57;;
20792;SDS011;10556;-33.662;151.094;2022-12-28T21:15:00;8.10;;;2.40;;
20792;SDS011;10556;-33.662;151.094;2022-12-28T21:20:02;4.20;;;2.03;;
20792;SDS011;10556;-33.662;151.094;2022-12-28T21:25:07;7.23;;;2.03;;
20792;SDS011;10556;-33.662;151.094;2022-12-28T21:30:10;6.30;;;1.93;;
20792;SDS011;10556;-33.662;151.094;2022-12-28T21:35:13;5.07;;;2.00;;
20792;SDS011;10556;-33.662;151.094;2022-12-28T21:40:17;3.77;;;1.50;;
20792;SDS011;10556;-33.662;151.094;2022-12-28T21:45:20;8.57;;;2.20;;
20792;SDS011;10556;-33.662;151.094;2022-12-28T21:50:22;6.90;;;2.17;;
20792;SDS011;10556;-33.662;151.094;2022-12-28T21:55:26;9.60;;;1.90;;
20792;SDS011;10556;-33.662;151.094;2022-12-28T22:00:29;11.47;;;2.63;;
20792;SDS011;10556;-33.662;151.094;2022-12-28T22:05:31;7.07;;;1.97;;
20792;SDS011;10556;-33.662;151.094;2022-12-28T22:10:36;9.00;;;1.80;;
20792;SDS011;10556;-33.662;151.094;2022-12-28T22:15:38;5.37;;;1.43;;
20792;SDS011;10556;-33.662;151.094;2022-12-28T22:20:41;4.30;;;1.50;;
20792;SDS011;10556;-33.662;151.094;2022-12-28T22:25:48;6.30;;;1.57;;
20792;SDS011;10556;-33.662;151.094;2022-12-28T22:30:50;7.63;;;1.80;;
20792;SDS011;10556;-33.662;151.094;2022-12-28T22:35:53;14.20;;;2.53;;
20792;SDS011;10556;-33.662;151.094;2022-12-28T22:40:57;6.53;;;2.27;;
20792;SDS011;10556;-33.662;151.094;2022-12-28T22:46:01;8.93;;;2.10;;
20792;SDS011;10556;-33.662;151.094;2022-12-28T22:51:05;6.73;;;1.43;;
20792;SDS011;10556;-33.662;151.094;2022-12-28T22:56:11;6.57;;;1.60;;
20792;SDS011;10556;-33.662;151.094;2022-12-28T23:01:15;4.90;;;1.57;;
20792;SDS011;10556;-33.662;151.094;2022-12-28T23:06:18;4.40;;;1.33;;
20792;SDS011;10556;-33.662;151.094;2022-12-28T23:11:22;3.50;;;1.17;;
20792;SDS011;10556;-33.662;151.094;2022-12-28T23:16:25;2.23;;;0.83;;
20792;SDS011;10556;-33.662;151.094;2022-12-28T23:21:27;6.63;;;1.53;;
20792;SDS011;10556;-33.662;151.094;2022-12-28T23:26:32;3.47;;;1.07;;
20792;SDS011;10556;-33.662;151.094;2022-12-28T23:31:34;3.97;;;1.30;;
20792;SDS011;10556;-33.662;151.094;2022-12-28T23:36:36;3.03;;;1.17;;
20792;SDS011;10556;-33.662;151.094;2022-12-28T23:41:41;3.77;;;0.90;;
20792;SDS011;10556;-33.662;151.094;2022-12-28T23:46:43;4.40;;;1.30;;
20792;SDS011;10556;-33.662;151.094;2022-12-28T23:51:46;4.27;;;1.03;;
20792;SDS011;10556;-33.662;151.094;2022-12-28T23:56:50;3.97;;;1.10;;
